sensor_id;sensor_type;location;lat;lon;timestamp;pressure;altitude;pressure_sealevel;temperature;humidity
38466;BME280;24244;51.950;5.902;2022-11-21T00:00:08;100475.00;;;4.26;74.01
38466;BME280;24244;51.950;5.902;2022-11-21T00:02:36;100487.06;;;4.29;74.15
38466;BME280;24244;51.950;5.902;2022-11-21T00:05:03;100488.16;;;4.26;74.30
38466;BME280;24244;51.950;5.902;2022-11-21T00:07:30;100489.19;;;4.25;74.18
38466;BME280;24244;51.950;5.902;2022-11-21T00:09:57;100486.69;;;4.24;74.24
38466;BME280;24244;51.950;5.902;2022-11-21T00:12:25;100488.63;;;4.22;74.51
38466;BME280;24244;51.950;5.902;2022-11-21T00:14:52;100486.84;;;4.22;74.38
38466;BME280;24244;51.950;5.902;2022-11-21T00:17:19;100494.03;;;4.20;74.59
38466;BME280;24244;51.950;5.902;2022-11-21T00:19:45;100486.47;;;4.17;74.67
38466;BME280;24244;51.950;5.902;2022-11-21T00:22:12;100493.38;;;4.18;74.84
38466;BME280;24244;51.950;5.902;2022-11-21T00:24:39;100486.47;;;4.17;75.04
38466;BME280;24244;51.950;5.902;2022-11-21T00:27:06;100490.75;;;4.18;74.85
38466;BME280;24244;51.950;5.902;2022-11-21T00:29:34;100492.25;;;4.21;74.99
38466;BME280;24244;51.950;5.902;2022-11-21T00:32:00;100490.44;;;4.21;75.19
38466;BME280;24244;51.950;5.902;2022-11-21T00:34:27;100484.34;;;4.21;75.02
38466;BME280;24244;51.950;5.902;2022-11-21T00:36:54;100484.34;;;4.21;74.81
38466;BME280;24244;51.950;5.902;2022-11-21T00:39:21;100487.66;;;4.23;74.84
38466;BME280;24244;51.950;5.902;2022-11-21T00:41:47;100487.38;;;4.26;74.64
38466;BME280;24244;51.950;5.902;2022-11-21T00:44:14;100483.91;;;4.25;75.04
38466;BME280;24244;51.950;5.902;2022-11-21T00:46:42;100493.44;;;4.26;75.01
38466;BME280;24244;51.950;5.902;2022-11-21T00:49:10;100488.16;;;4.26;75.24
38466;BME280;24244;51.950;5.902;2022-11-21T00:51:37;100494.94;;;4.29;75.06
38466;BME280;24244;51.950;5.902;2022-11-21T00:54:03;100495.78;;;4.29;75.15
38466;BME280;24244;51.950;5.902;2022-11-21T00:56:30;100488.56;;;4.31;75.02
38466;BME280;24244;51.950;5.902;2022-11-21T00:58:56;100490.38;;;4.31;75.40
38466;BME280;24244;51.950;5.902;2022-11-21T01:01:23;100488.56;;;4.31;75.31
38466;BME280;24244;51.950;5.902;2022-11-21T01:03:51;100496.97;;;4.35;75.35
38466;BME280;24244;51.950;5.902;2022-11-21T01:06:18;100501.41;;;4.34;75.43
38466;BME280;24244;51.950;5.902;2022-11-21T01:08:44;100507.47;;;4.35;75.35
38466;BME280;24244;51.950;5.902;2022-11-21T01:11:13;100505.69;;;4.36;75.30
38466;BME280;24244;51.950;5.902;2022-11-21T01:13:40;100504.03;;;4.34;75.51
38466;BME280;24244;51.950;5.902;2022-11-21T01:16:09;100503.19;;;4.34;75.41
38466;BME280;24244;51.950;5.902;2022-11-21T01:18:36;100507.34;;;4.37;75.46
38466;BME280;24244;51.950;5.902;2022-11-21T01:21:06;100505.69;;;4.36;75.33
38466;BME280;24244;51.950;5.902;2022-11-21T01:23:33;100513.56;;;4.36;75.62
38466;BME280;24244;51.950;5.902;2022-11-21T01:26:00;100502.38;;;4.33;75.37
38466;BME280;24244;51.950;5.902;2022-11-21T01:28:29;100496.59;;;4.30;75.63
38466;BME280;24244;51.950;5.902;2022-11-21T01:31:02;100499.69;;;4.25;75.62
38466;BME280;24244;51.950;5.902;2022-11-21T01:33:29;100500.66;;;4.24;75.81
38466;BME280;24244;51.950;5.902;2022-11-21T01:35:56;100502.31;;;4.25;75.96
38466;BME280;24244;51.950;5.902;2022-11-21T01:38:24;100504.13;;;4.25;75.99
38466;BME280;24244;51.950;5.902;2022-11-21T01:40:51;100508.84;;;4.21;75.78
38466;BME280;24244;51.950;5.902;2022-11-21T01:43:18;100506.38;;;4.20;76.06
38466;BME280;24244;51.950;5.902;2022-11-21T01:46:03;100509.31;;;4.17;76.31
38466;BME280;24244;51.950;5.902;2022-11-21T01:48:36;100503.38;;;4.15;76.07
38466;BME280;24244;51.950;5.902;2022-11-21T01:51:09;100501.72;;;4.14;76.33
38466;BME280;24244;51.950;5.902;2022-11-21T01:53:40;100501.84;;;4.12;76.37
38466;BME280;24244;51.950;5.902;2022-11-21T01:56:09;100506.00;;;4.15;76.49
38466;BME280;24244;51.950;5.902;2022-11-21T01:58:37;100502.41;;;4.16;76.21
38466;BME280;24244;51.950;5.902;2022-11-21T02:01:05;100507.66;;;4.16;76.52
38466;BME280;24244;51.950;5.902;2022-11-21T02:03:33;100502.09;;;4.19;76.03
38466;BME280;24244;51.950;5.902;2022-11-21T02:06:01;100502.91;;;4.19;76.40
38466;BME280;24244;51.950;5.902;2022-11-21T02:08:28;100501.94;;;4.20;76.67
38466;BME280;24244;51.950;5.902;2022-11-21T02:11:05;100502.91;;;4.19;76.36
38466;BME280;24244;51.950;5.902;2022-11-21T02:13:34;100503.91;;;4.18;76.23
38466;BME280;24244;51.950;5.902;2022-11-21T02:16:01;100495.34;;;4.16;76.42
38466;BME280;24244;51.950;5.902;2022-11-21T02:18:28;100493.53;;;4.17;76.57
38466;BME280;24244;51.950;5.902;2022-11-21T02:21:00;100498.66;;;4.18;76.42
38466;BME280;24244;51.950;5.902;2022-11-21T02:23:38;100507.19;;;4.20;76.50
38466;BME280;24244;51.950;5.902;2022-11-21T02:26:09;100507.72;;;4.24;76.42
38466;BME280;24244;51.950;5.902;2022-11-21T02:28:36;100502.31;;;4.25;76.41
38466;BME280;24244;51.950;5.902;2022-11-21T02:31:05;100505.78;;;4.26;76.37
38466;BME280;24244;51.950;5.902;2022-11-21T02:33:32;100494.59;;;4.24;76.59
38466;BME280;24244;51.950;5.902;2022-11-21T02:35:59;100503.94;;;4.26;76.61
38466;BME280;24244;51.950;5.902;2022-11-21T02:38:29;100504.13;;;4.25;76.91
38466;BME280;24244;51.950;5.902;2022-11-21T02:41:01;100510.88;;;4.27;76.61
38466;BME280;24244;51.950;5.902;2022-11-21T02:43:35;100502.97;;;4.27;76.78
38466;BME280;24244;51.950;5.902;2022-11-21T02:46:03;100506.28;;;4.29;76.84
38466;BME280;24244;51.950;5.902;2022-11-21T02:48:30;100502.31;;;4.25;76.91
38466;BME280;24244;51.950;5.902;2022-11-21T02:50:57;100496.25;;;4.25;76.67
38466;BME280;24244;51.950;5.902;2022-11-21T02:53:23;100491.25;;;4.22;76.72
38466;BME280;24244;51.950;5.902;2022-11-21T02:55:50;100486.97;;;4.21;77.15
38466;BME280;24244;51.950;5.902;2022-11-21T02:58:17;100487.81;;;4.21;76.58
38466;BME280;24244;51.950;5.902;2022-11-21T03:00:45;100476.31;;;4.22;77.39
38466;BME280;24244;51.950;5.902;2022-11-21T03:03:11;100477.97;;;4.23;76.70
38466;BME280;24244;51.950;5.902;2022-11-21T03:05:38;100476.16;;;4.24;76.65
38466;BME280;24244;51.950;5.902;2022-11-21T03:08:06;100476.31;;;4.22;76.93
38466;BME280;24244;51.950;5.902;2022-11-21T03:10:33;100475.47;;;4.22;77.25
38466;BME280;24244;51.950;5.902;2022-11-21T03:13:03;100484.19;;;4.22;77.01
38466;BME280;24244;51.950;5.902;2022-11-21T03:15:33;100473.81;;;4.21;77.18
38466;BME280;24244;51.950;5.902;2022-11-21T03:18:02;100479.91;;;4.21;76.83
38466;BME280;24244;51.950;5.902;2022-11-21T03:20:29;100473.00;;;4.20;77.17
38466;BME280;24244;51.950;5.902;2022-11-21T03:22:56;100475.47;;;4.22;77.44
38466;BME280;24244;51.950;5.902;2022-11-21T03:25:23;100476.31;;;4.22;77.25
38466;BME280;24244;51.950;5.902;2022-11-21T03:27:50;100481.56;;;4.22;77.07
38466;BME280;24244;51.950;5.902;2022-11-21T03:30:18;100464.81;;;4.23;77.10
38466;BME280;24244;51.950;5.902;2022-11-21T03:32:45;100468.56;;;4.21;77.27
38466;BME280;24244;51.950;5.902;2022-11-21T03:35:13;100456.72;;;4.17;77.42
38466;BME280;24244;51.950;5.902;2022-11-21T03:37:40;100463.09;;;4.14;77.44
38466;BME280;24244;51.950;5.902;2022-11-21T03:40:08;100459.13;;;4.10;77.63
38466;BME280;24244;51.950;5.902;2022-11-21T03:42:35;100457.16;;;4.12;77.64
38466;BME280;24244;51.950;5.902;2022-11-21T03:45:03;100463.09;;;4.14;77.41
38466;BME280;24244;51.950;5.902;2022-11-21T03:47:29;100467.53;;;4.14;77.44
38466;BME280;24244;51.950;5.902;2022-11-21T03:49:56;100457.81;;;4.14;77.51
38466;BME280;24244;51.950;5.902;2022-11-21T03:52:24;100465.72;;;4.14;77.37
38466;BME280;24244;51.950;5.902;2022-11-21T03:54:51;100462.25;;;4.14;77.67
38466;BME280;24244;51.950;5.902;2022-11-21T03:57:18;100468.34;;;4.14;77.69
38466;BME280;24244;51.950;5.902;2022-11-21T03:59:44;100471.13;;;4.13;77.37
38466;BME280;24244;51.950;5.902;2022-11-21T04:02:11;100468.34;;;4.14;77.77
38466;BME280;24244;51.950;5.902;2022-11-21T04:04:38;100477.75;;;4.17;77.59
38466;BME280;24244;51.950;5.902;2022-11-21T04:07:05;100479.22;;;4.19;77.62
38466;BME280;24244;51.950;5.902;2022-11-21T04:09:33;100477.28;;;4.21;77.42
38466;BME280;24244;51.950;5.902;2022-11-21T04:12:00;100473.69;;;4.22;77.49
38466;BME280;24244;51.950;5.902;2022-11-21T04:14:32;100481.56;;;4.22;77.14
38466;BME280;24244;51.950;5.902;2022-11-21T04:16:59;100484.19;;;4.22;77.30
38466;BME280;24244;51.950;5.902;2022-11-21T04:19:26;100475.63;;;4.20;77.44
38466;BME280;24244;51.950;5.902;2022-11-21T04:21:52;100477.44;;;4.20;77.14
38466;BME280;24244;51.950;5.902;2022-11-21T04:24:19;100482.03;;;4.18;77.81
38466;BME280;24244;51.950;5.902;2022-11-21T04:26:47;100474.16;;;4.18;77.21
38466;BME280;24244;51.950;5.902;2022-11-21T04:29:14;100466.56;;;4.15;77.46
38466;BME280;24244;51.950;5.902;2022-11-21T04:31:40;100470.28;;;4.12;77.44
38466;BME280;24244;51.950;5.902;2022-11-21T04:34:07;100467.84;;;4.11;77.69
38466;BME280;24244;51.950;5.902;2022-11-21T04:36:34;100462.19;;;4.06;78.00
38466;BME280;24244;51.950;5.902;2022-11-21T04:39:00;100468.28;;;4.06;78.18
38466;BME280;24244;51.950;5.902;2022-11-21T04:41:27;100464.00;;;4.05;77.82
38466;BME280;24244;51.950;5.902;2022-11-21T04:43:55;100454.47;;;4.04;77.78
38466;BME280;24244;51.950;5.902;2022-11-21T04:46:22;100454.47;;;4.04;77.96
38466;BME280;24244;51.950;5.902;2022-11-21T04:48:48;100457.75;;;4.06;78.13
38466;BME280;24244;51.950;5.902;2022-11-21T04:51:15;100452.66;;;4.05;77.87
38466;BME280;24244;51.950;5.902;2022-11-21T04:53:42;100450.19;;;4.03;77.76
38466;BME280;24244;51.950;5.902;2022-11-21T04:56:09;100448.22;;;4.05;78.13
38466;BME280;24244;51.950;5.902;2022-11-21T04:58:35;100446.25;;;4.07;78.20
38466;BME280;24244;51.950;5.902;2022-11-21T05:01:07;100435.59;;;4.09;77.96
38466;BME280;24244;51.950;5.902;2022-11-21T05:03:35;100436.91;;;4.05;78.01
38466;BME280;24244;51.950;5.902;2022-11-21T05:06:02;100434.41;;;4.03;77.94
38466;BME280;24244;51.950;5.902;2022-11-21T05:08:29;100442.31;;;4.03;78.15
38466;BME280;24244;51.950;5.902;2022-11-21T05:10:55;100436.91;;;4.05;78.23
38466;BME280;24244;51.950;5.902;2022-11-21T05:13:40;100441.16;;;4.06;77.92
38466;BME280;24244;51.950;5.902;2022-11-21T05:16:08;100447.91;;;4.08;78.01
38466;BME280;24244;51.950;5.902;2022-11-21T05:18:35;100436.91;;;4.05;78.15
38466;BME280;24244;51.950;5.902;2022-11-21T05:21:02;100433.72;;;4.01;78.09
38466;BME280;24244;51.950;5.902;2022-11-21T05:23:29;100444.09;;;4.03;78.24
38466;BME280;24244;51.950;5.902;2022-11-21T05:25:55;100451.84;;;4.04;78.18
38466;BME280;24244;51.950;5.902;2022-11-21T05:28:22;100449.22;;;4.04;78.21
38466;BME280;24244;51.950;5.902;2022-11-21T05:30:49;100447.25;;;4.06;78.08
38466;BME280;24244;51.950;5.902;2022-11-21T05:33:17;100440.19;;;4.07;78.47
38466;BME280;24244;51.950;5.902;2022-11-21T05:35:43;100435.88;;;4.06;78.40
38466;BME280;24244;51.950;5.902;2022-11-21T05:38:10;100443.63;;;4.07;78.17
38466;BME280;24244;51.950;5.902;2022-11-21T05:40:37;100444.16;;;4.11;78.44
38466;BME280;24244;51.950;5.902;2022-11-21T05:43:04;100436.28;;;4.11;78.16
38466;BME280;24244;51.950;5.902;2022-11-21T05:45:50;100432.69;;;4.12;78.52
38466;BME280;24244;51.950;5.902;2022-11-21T05:48:18;100426.59;;;4.11;78.07
38466;BME280;24244;51.950;5.902;2022-11-21T05:50:46;100433.66;;;4.11;78.50
38466;BME280;24244;51.950;5.902;2022-11-21T05:53:14;100431.03;;;4.11;78.11
38466;BME280;24244;51.950;5.902;2022-11-21T05:55:41;100426.59;;;4.11;78.53
38466;BME280;24244;51.950;5.902;2022-11-21T05:58:07;100433.34;;;4.14;78.76
38466;BME280;24244;51.950;5.902;2022-11-21T06:00:36;100420.19;;;4.14;78.12
38466;BME280;24244;51.950;5.902;2022-11-21T06:03:04;100420.84;;;4.16;78.59
38466;BME280;24244;51.950;5.902;2022-11-21T06:05:51;100411.16;;;4.16;78.14
38466;BME280;24244;51.950;5.902;2022-11-21T06:08:20;100405.75;;;4.18;78.42
38466;BME280;24244;51.950;5.902;2022-11-21T06:10:47;100402.59;;;4.14;78.38
38466;BME280;24244;51.950;5.902;2022-11-21T06:13:14;100400.94;;;4.13;78.30
38466;BME280;24244;51.950;5.902;2022-11-21T06:15:52;100393.22;;;4.12;78.44
38466;BME280;24244;51.950;5.902;2022-11-21T06:18:19;100382.72;;;4.12;78.83
38466;BME280;24244;51.950;5.902;2022-11-21T06:20:46;100385.34;;;4.12;78.66
38466;BME280;24244;51.950;5.902;2022-11-21T06:23:14;100390.41;;;4.13;78.92
38466;BME280;24244;51.950;5.902;2022-11-21T06:25:41;100403.44;;;4.15;78.62
38466;BME280;24244;51.950;5.902;2022-11-21T06:28:09;100394.56;;;4.16;78.62
38466;BME280;24244;51.950;5.902;2022-11-21T06:30:37;100383.88;;;4.17;78.67
38466;BME280;24244;51.950;5.902;2022-11-21T06:33:04;100390.81;;;4.18;78.74
38466;BME280;24244;51.950;5.902;2022-11-21T06:35:32;100391.63;;;4.19;78.71
38466;BME280;24244;51.950;5.902;2022-11-21T06:38:04;100394.41;;;4.17;78.70
38466;BME280;24244;51.950;5.902;2022-11-21T06:40:33;100386.38;;;4.19;78.88
38466;BME280;24244;51.950;5.902;2022-11-21T06:43:00;100391.44;;;4.20;79.02
38466;BME280;24244;51.950;5.902;2022-11-21T06:45:27;100389.50;;;4.22;78.86
38466;BME280;24244;51.950;5.902;2022-11-21T06:47:54;100395.59;;;4.23;78.86
38466;BME280;24244;51.950;5.902;2022-11-21T06:50:20;100389.34;;;4.24;79.13
38466;BME280;24244;51.950;5.902;2022-11-21T06:52:48;100383.94;;;4.25;78.76
38466;BME280;24244;51.950;5.902;2022-11-21T06:55:15;100375.06;;;4.26;78.87
38466;BME280;24244;51.950;5.902;2022-11-21T06:57:43;100373.44;;;4.25;79.08
38466;BME280;24244;51.950;5.902;2022-11-21T07:00:11;100370.78;;;4.25;78.67
38466;BME280;24244;51.950;5.902;2022-11-21T07:02:37;100376.06;;;4.25;78.87
38466;BME280;24244;51.950;5.902;2022-11-21T07:05:05;100376.88;;;4.26;78.92
38466;BME280;24244;51.950;5.902;2022-11-21T07:07:32;100367.16;;;4.26;79.13
38466;BME280;24244;51.950;5.902;2022-11-21T07:09:59;100369.63;;;4.28;79.32
38466;BME280;24244;51.950;5.902;2022-11-21T07:12:26;100374.06;;;4.27;79.03
38466;BME280;24244;51.950;5.902;2022-11-21T07:15:12;100375.56;;;4.30;78.91
38466;BME280;24244;51.950;5.902;2022-11-21T07:17:39;100371.28;;;4.29;79.13
38466;BME280;24244;51.950;5.902;2022-11-21T07:20:07;100368.81;;;4.27;79.37
38466;BME280;24244;51.950;5.902;2022-11-21T07:22:36;100359.25;;;4.26;79.06
38466;BME280;24244;51.950;5.902;2022-11-21T07:25:03;100346.13;;;4.26;78.94
38466;BME280;24244;51.950;5.902;2022-11-21T07:27:30;100352.19;;;4.27;79.21
38466;BME280;24244;51.950;5.902;2022-11-21T07:29:57;100349.56;;;4.27;79.67
38466;BME280;24244;51.950;5.902;2022-11-21T07:32:25;100357.47;;;4.27;79.52
38466;BME280;24244;51.950;5.902;2022-11-21T07:34:53;100358.97;;;4.29;79.46
38466;BME280;24244;51.950;5.902;2022-11-21T07:37:19;100354.38;;;4.31;79.04
38466;BME280;24244;51.950;5.902;2022-11-21T07:39:46;100356.19;;;4.31;79.53
38466;BME280;24244;51.950;5.902;2022-11-21T07:42:13;100363.25;;;4.30;79.42
38466;BME280;24244;51.950;5.902;2022-11-21T07:44:41;100360.47;;;4.32;79.55
38466;BME280;24244;51.950;5.902;2022-11-21T07:47:07;100359.50;;;4.33;79.46
38466;BME280;24244;51.950;5.902;2022-11-21T07:49:35;100356.03;;;4.32;79.57
38466;BME280;24244;51.950;5.902;2022-11-21T07:52:02;100365.75;;;4.32;79.40
38466;BME280;24244;51.950;5.902;2022-11-21T07:54:29;100363.75;;;4.34;79.65
38466;BME280;24244;51.950;5.902;2022-11-21T07:56:56;100357.50;;;4.35;79.58
38466;BME280;24244;51.950;5.902;2022-11-21T07:59:23;100358.03;;;4.39;79.70
38466;BME280;24244;51.950;5.902;2022-11-21T08:01:50;100356.38;;;4.38;79.78
38466;BME280;24244;51.950;5.902;2022-11-21T08:04:16;100357.06;;;4.40;79.60
38466;BME280;24244;51.950;5.902;2022-11-21T08:06:45;100349.00;;;4.41;79.75
38466;BME280;24244;51.950;5.902;2022-11-21T08:09:13;100344.88;;;4.39;79.52
38466;BME280;24244;51.950;5.902;2022-11-21T08:11:40;100345.03;;;4.37;79.95
38466;BME280;24244;51.950;5.902;2022-11-21T08:14:06;100345.53;;;4.41;79.49
38466;BME280;24244;51.950;5.902;2022-11-21T08:16:33;100339.47;;;4.40;79.72
38466;BME280;24244;51.950;5.902;2022-11-21T08:19:00;100326.47;;;4.39;79.97
38466;BME280;24244;51.950;5.902;2022-11-21T08:21:27;100337.81;;;4.39;79.74
38466;BME280;24244;51.950;5.902;2022-11-21T08:23:55;100340.44;;;4.39;80.11
38466;BME280;24244;51.950;5.902;2022-11-21T08:26:21;100328.13;;;4.40;79.95
38466;BME280;24244;51.950;5.902;2022-11-21T08:28:48;100330.41;;;4.43;80.20
38466;BME280;24244;51.950;5.902;2022-11-21T08:31:15;100319.91;;;4.43;79.82
38466;BME280;24244;51.950;5.902;2022-11-21T08:33:42;100309.06;;;4.46;80.20
38466;BME280;24244;51.950;5.902;2022-11-21T08:36:09;100318.44;;;4.48;80.38
38466;BME280;24244;51.950;5.902;2022-11-21T08:38:36;100312.03;;;4.51;80.10
38466;BME280;24244;51.950;5.902;2022-11-21T08:41:04;100304.81;;;4.53;80.12
38466;BME280;24244;51.950;5.902;2022-11-21T08:43:49;100309.09;;;4.54;79.88
38466;BME280;24244;51.950;5.902;2022-11-21T08:46:16;100310.72;;;4.55;80.14
38466;BME280;24244;51.950;5.902;2022-11-21T08:48:43;100308.94;;;4.55;80.01
38466;BME280;24244;51.950;5.902;2022-11-21T08:51:10;100313.06;;;4.58;80.06
38466;BME280;24244;51.950;5.902;2022-11-21T08:53:37;100306.00;;;4.58;80.08
38466;BME280;24244;51.950;5.902;2022-11-21T08:56:05;100303.22;;;4.60;80.13
38466;BME280;24244;51.950;5.902;2022-11-21T08:58:32;100300.56;;;4.60;80.26
38466;BME280;24244;51.950;5.902;2022-11-21T09:00:59;100294.16;;;4.62;80.12
38466;BME280;24244;51.950;5.902;2022-11-21T09:03:25;100293.31;;;4.62;80.21
38466;BME280;24244;51.950;5.902;2022-11-21T09:05:57;100286.78;;;4.66;80.25
38466;BME280;24244;51.950;5.902;2022-11-21T09:08:24;100277.75;;;4.68;80.56
38466;BME280;24244;51.950;5.902;2022-11-21T09:10:51;100279.38;;;4.69;80.63
38466;BME280;24244;51.950;5.902;2022-11-21T09:13:19;100284.31;;;4.72;80.75
38466;BME280;24244;51.950;5.902;2022-11-21T09:15:46;100286.81;;;4.74;80.46
38466;BME280;24244;51.950;5.902;2022-11-21T09:18:32;100282.84;;;4.78;80.60
38466;BME280;24244;51.950;5.902;2022-11-21T09:20:58;100288.63;;;4.82;80.57
38466;BME280;24244;51.950;5.902;2022-11-21T09:23:25;100287.31;;;4.86;80.37
38466;BME280;24244;51.950;5.902;2022-11-21T09:25:52;100287.84;;;4.89;80.46
38466;BME280;24244;51.950;5.902;2022-11-21T09:28:20;100278.91;;;4.90;80.35
38466;BME280;24244;51.950;5.902;2022-11-21T09:30:48;100282.56;;;4.89;80.45
38466;BME280;24244;51.950;5.902;2022-11-21T09:33:15;100280.75;;;4.90;80.74
38466;BME280;24244;51.950;5.902;2022-11-21T09:35:45;100269.22;;;4.91;81.01
38466;BME280;24244;51.950;5.902;2022-11-21T09:38:11;100266.28;;;4.94;80.99
38466;BME280;24244;51.950;5.902;2022-11-21T09:40:42;100251.13;;;4.96;80.83
38466;BME280;24244;51.950;5.902;2022-11-21T09:43:25;100249.00;;;4.99;80.76
38466;BME280;24244;51.950;5.902;2022-11-21T09:45:58;100248.31;;;4.97;81.40
38466;BME280;24244;51.950;5.902;2022-11-21T09:48:31;100241.09;;;4.99;81.37
38466;BME280;24244;51.950;5.902;2022-11-21T09:51:03;100237.00;;;4.97;81.20
38466;BME280;24244;51.950;5.902;2022-11-21T09:53:34;100224.81;;;4.96;81.24
38466;BME280;24244;51.950;5.902;2022-11-21T09:56:05;100233.53;;;4.96;81.46
38466;BME280;24244;51.950;5.902;2022-11-21T09:58:38;100225.63;;;4.96;81.30
38466;BME280;24244;51.950;5.902;2022-11-21T10:01:09;100209.63;;;4.98;81.39
38466;BME280;24244;51.950;5.902;2022-11-21T10:03:41;100209.16;;;5.02;81.72
38466;BME280;24244;51.950;5.902;2022-11-21T10:06:16;100208.66;;;5.07;81.49
38466;BME280;24244;51.950;5.902;2022-11-21T10:08:54;100204.22;;;5.07;81.52
38466;BME280;24244;51.950;5.902;2022-11-21T10:11:36;100210.78;;;5.11;81.72
38466;BME280;24244;51.950;5.902;2022-11-21T10:14:36;100200.09;;;5.13;81.64
38466;BME280;24244;51.950;5.902;2022-11-21T10:17:15;100192.56;;;5.18;81.36
38466;BME280;24244;51.950;5.902;2022-11-21T10:19:55;100198.97;;;5.24;81.54
38466;BME280;24244;51.950;5.902;2022-11-21T10:22:42;100198.47;;;5.28;81.88
38466;BME280;24244;51.950;5.902;2022-11-21T10:25:20;100203.25;;;5.33;81.91
38466;BME280;24244;51.950;5.902;2022-11-21T10:27:55;100208.84;;;5.38;81.66
38466;BME280;24244;51.950;5.902;2022-11-21T10:30:24;100215.56;;;5.40;81.70
38466;BME280;24244;51.950;5.902;2022-11-21T10:32:54;100197.63;;;5.44;81.53
38466;BME280;24244;51.950;5.902;2022-11-21T10:35:24;100201.56;;;5.48;81.69
38466;BME280;24244;51.950;5.902;2022-11-21T10:37:52;100194.97;;;5.52;81.75
38466;BME280;24244;51.950;5.902;2022-11-21T10:40:28;100194.63;;;5.55;81.49
38466;BME280;24244;51.950;5.902;2022-11-21T10:42:59;100187.06;;;5.60;81.46
38466;BME280;24244;51.950;5.902;2022-11-21T10:45:49;100182.25;;;5.64;81.36
38466;BME280;24244;51.950;5.902;2022-11-21T10:48:16;100167.09;;;5.66;81.56
38466;BME280;24244;51.950;5.902;2022-11-21T10:50:51;100157.03;;;5.69;81.35
38466;BME280;24244;51.950;5.902;2022-11-21T10:53:24;100159.66;;;5.69;81.41
38466;BME280;24244;51.950;5.902;2022-11-21T10:56:11;100162.97;;;5.71;81.42
38466;BME280;24244;51.950;5.902;2022-11-21T10:58:41;100153.91;;;5.74;81.75
38466;BME280;24244;51.950;5.902;2022-11-21T11:01:25;100146.47;;;5.77;81.55
38466;BME280;24244;51.950;5.902;2022-11-21T11:04:19;100136.25;;;5.82;81.49
38466;BME280;24244;51.950;5.902;2022-11-21T11:06:54;100133.59;;;5.82;81.87
38466;BME280;24244;51.950;5.902;2022-11-21T11:09:27;100132.25;;;5.86;81.49
38466;BME280;24244;51.950;5.902;2022-11-21T11:12:20;100131.97;;;5.89;81.52
38466;BME280;24244;51.950;5.902;2022-11-21T11:14:50;100125.34;;;5.94;81.63
38466;BME280;24244;51.950;5.902;2022-11-21T11:17:27;100127.28;;;6.00;81.37
38466;BME280;24244;51.950;5.902;2022-11-21T11:19:59;100117.22;;;6.03;81.61
38466;BME280;24244;51.950;5.902;2022-11-21T11:22:27;100113.41;;;6.06;81.54
38466;BME280;24244;51.950;5.902;2022-11-21T11:24:54;100115.53;;;6.10;81.41
38466;BME280;24244;51.950;5.902;2022-11-21T11:27:26;100108.25;;;6.12;81.52
38466;BME280;24244;51.950;5.902;2022-11-21T11:29:53;100108.56;;;6.17;81.56
38466;BME280;24244;51.950;5.902;2022-11-21T11:32:21;100098.47;;;6.21;81.57
38466;BME280;24244;51.950;5.902;2022-11-21T11:34:56;100098.97;;;6.24;81.53
38466;BME280;24244;51.950;5.902;2022-11-21T11:37:31;100087.88;;;6.29;81.44
38466;BME280;24244;51.950;5.902;2022-11-21T11:40:15;100082.88;;;6.34;81.20
38466;BME280;24244;51.950;5.902;2022-11-21T11:42:52;100072.97;;;6.36;81.31
38466;BME280;24244;51.950;5.902;2022-11-21T11:46:02;100072.44;;;6.41;81.30
38466;BME280;24244;51.950;5.902;2022-11-21T11:48:52;100065.00;;;6.44;81.27
38466;BME280;24244;51.950;5.902;2022-11-21T11:51:45;100062.66;;;6.49;81.38
38466;BME280;24244;51.950;5.902;2022-11-21T11:54:17;100068.03;;;6.56;81.55
38466;BME280;24244;51.950;5.902;2022-11-21T11:56:45;100061.44;;;6.60;81.36
38466;BME280;24244;51.950;5.902;2022-11-21T11:59:17;100048.66;;;6.63;81.48
38466;BME280;24244;51.950;5.902;2022-11-21T12:01:50;100048.94;;;6.68;81.69
38466;BME280;24244;51.950;5.902;2022-11-21T12:04:20;100046.78;;;6.72;81.61
38466;BME280;24244;51.950;5.902;2022-11-21T12:06:51;100034.84;;;6.76;81.47
38466;BME280;24244;51.950;5.902;2022-11-21T12:09:46;100023.78;;;6.81;81.48
38466;BME280;24244;51.950;5.902;2022-11-21T12:12:25;100013.66;;;6.84;81.53
38466;BME280;24244;51.950;5.902;2022-11-21T12:15:01;100007.84;;;6.89;81.42
38466;BME280;24244;51.950;5.902;2022-11-21T12:17:55;100003.81;;;6.93;81.52
38466;BME280;24244;51.950;5.902;2022-11-21T12:20:28;99999.63;;;6.98;81.53
38466;BME280;24244;51.950;5.902;2022-11-21T12:22:57;99991.97;;;7.03;81.56
38466;BME280;24244;51.950;5.902;2022-11-21T12:25:28;99984.53;;;7.07;81.44
38466;BME280;24244;51.950;5.902;2022-11-21T12:27:55;99990.25;;;7.11;81.71
38466;BME280;24244;51.950;5.902;2022-11-21T12:30:35;99972.38;;;7.13;81.39
38466;BME280;24244;51.950;5.902;2022-11-21T12:33:05;99974.28;;;7.19;81.48
38466;BME280;24244;51.950;5.902;2022-11-21T12:35:54;99967.66;;;7.23;81.49
38466;BME280;24244;51.950;5.902;2022-11-21T12:38:53;99959.81;;;7.29;81.33
38466;BME280;24244;51.950;5.902;2022-11-21T12:41:27;99954.94;;;7.33;81.48
38466;BME280;24244;51.950;5.902;2022-11-21T12:44:30;99945.66;;;7.37;81.46
38466;BME280;24244;51.950;5.902;2022-11-21T12:47:08;99943.47;;;7.40;81.51
38466;BME280;24244;51.950;5.902;2022-11-21T12:49:48;99941.28;;;7.44;81.71
38466;BME280;24244;51.950;5.902;2022-11-21T12:52:39;99929.50;;;7.46;81.60
38466;BME280;24244;51.950;5.902;2022-11-21T12:55:34;99927.50;;;7.48;81.74
38466;BME280;24244;51.950;5.902;2022-11-21T12:58:20;99924.66;;;7.50;81.69
38466;BME280;24244;51.950;5.902;2022-11-21T13:01:14;99921.63;;;7.53;81.70
38466;BME280;24244;51.950;5.902;2022-11-21T13:03:51;99915.16;;;7.56;81.72
38466;BME280;24244;51.950;5.902;2022-11-21T13:06:23;99907.03;;;7.57;81.80
38466;BME280;24244;51.950;5.902;2022-11-21T13:08:53;99899.75;;;7.59;81.62
38466;BME280;24244;51.950;5.902;2022-11-21T13:11:35;99894.25;;;7.61;81.95
38466;BME280;24244;51.950;5.902;2022-11-21T13:14:27;99889.59;;;7.63;81.88
38466;BME280;24244;51.950;5.902;2022-11-21T13:19:50;99873.38;;;7.66;81.86